sensor_id;sensor_type;location;lat;lon;timestamp;P1;durP1;ratioP1;P2;durP2;ratioP2
66012;SDS011;52783;50.502;8.190;2023-02-01T00:01:53;21.00;;;8.93;;
66012;SDS011;52783;50.502;8.190;2023-02-01T00:04:19;16.75;;;8.80;;
66012;SDS011;52783;50.502;8.190;2023-02-01T00:06:44;15.65;;;7.85;;
66012;SDS011;52783;50.502;8.190;2023-02-01T00:09:10;24.13;;;8.45;;
66012;SDS011;52783;50.502;8.190;2023-02-01T00:11:36;17.73;;;7.93;;
66012;SDS011;52783;50.502;8.190;2023-02-01T00:14:02;20.10;;;8.73;;
66012;SDS011;52783;50.502;8.190;2023-02-01T00:16:28;19.55;;;8.82;;
66012;SDS011;52783;50.502;8.190;2023-02-01T00:18:59;20.48;;;8.57;;
66012;SDS011;52783;50.502;8.190;2023-02-01T00:21:29;14.90;;;7.85;;
66012;SDS011;52783;50.502;8.190;2023-02-01T00:23:55;18.55;;;8.48;;
66012;SDS011;52783;50.502;8.190;2023-02-01T00:26:54;14.23;;;6.97;;
66012;SDS011;52783;50.502;8.190;2023-02-01T00:29:17;19.38;;;8.07;;
66012;SDS011;52783;50.502;8.190;2023-02-01T00:31:44;22.45;;;8.05;;
66012;SDS011;52783;50.502;8.190;2023-02-01T00:34:11;13.18;;;7.97;;
66012;SDS011;52783;50.502;8.190;2023-02-01T00:36:38;18.98;;;8.63;;
66012;SDS011;52783;50.502;8.190;2023-02-01T00:39:05;18.75;;;9.50;;
66012;SDS011;52783;50.502;8.190;2023-02-01T00:41:30;19.52;;;9.27;;
66012;SDS011;52783;50.502;8.190;2023-02-01T00:43:56;16.45;;;9.27;;
66012;SDS011;52783;50.502;8.190;2023-02-01T00:46:21;18.50;;;9.68;;
66012;SDS011;52783;50.502;8.190;2023-02-01T00:48:47;20.00;;;9.52;;
66012;SDS011;52783;50.502;8.190;2023-02-01T00:51:17;21.77;;;10.18;;
66012;SDS011;52783;50.502;8.190;2023-02-01T00:56:11;18.00;;;8.60;;
66012;SDS011;52783;50.502;8.190;2023-02-01T00:58:37;25.85;;;10.13;;
66012;SDS011;52783;50.502;8.190;2023-02-01T01:01:10;17.65;;;9.55;;
66012;SDS011;52783;50.502;8.190;2023-02-01T01:03:36;18.70;;;9.30;;
66012;SDS011;52783;50.502;8.190;2023-02-01T01:06:16;24.35;;;10.02;;
66012;SDS011;52783;50.502;8.190;2023-02-01T01:08:47;18.40;;;9.63;;
66012;SDS011;52783;50.502;8.190;2023-02-01T01:11:14;14.75;;;9.35;;
66012;SDS011;52783;50.502;8.190;2023-02-01T01:13:40;18.92;;;9.45;;
66012;SDS011;52783;50.502;8.190;2023-02-01T01:16:07;20.48;;;10.45;;
66012;SDS011;52783;50.502;8.190;2023-02-01T01:18:34;18.90;;;9.45;;
66012;SDS011;52783;50.502;8.190;2023-02-01T01:21:00;22.85;;;10.30;;
66012;SDS011;52783;50.502;8.190;2023-02-01T01:23:26;17.17;;;10.00;;
66012;SDS011;52783;50.502;8.190;2023-02-01T01:25:52;18.85;;;9.68;;
66012;SDS011;52783;50.502;8.190;2023-02-01T01:28:18;19.42;;;10.20;;
66012;SDS011;52783;50.502;8.190;2023-02-01T01:30:44;18.13;;;9.48;;
66012;SDS011;52783;50.502;8.190;2023-02-01T01:33:09;18.30;;;10.32;;
66012;SDS011;52783;50.502;8.190;2023-02-01T01:35:35;19.70;;;9.68;;
66012;SDS011;52783;50.502;8.190;2023-02-01T01:38:02;17.88;;;9.35;;
66012;SDS011;52783;50.502;8.190;2023-02-01T01:40:27;20.52;;;9.80;;
66012;SDS011;52783;50.502;8.190;2023-02-01T01:42:54;14.38;;;8.85;;
66012;SDS011;52783;50.502;8.190;2023-02-01T01:47:50;13.50;;;8.55;;
66012;SDS011;52783;50.502;8.190;2023-02-01T01:50:28;14.65;;;8.82;;
66012;SDS011;52783;50.502;8.190;2023-02-01T01:52:58;15.82;;;8.50;;
66012;SDS011;52783;50.502;8.190;2023-02-01T01:55:28;20.67;;;9.30;;
66012;SDS011;52783;50.502;8.190;2023-02-01T01:58:00;12.60;;;8.02;;
66012;SDS011;52783;50.502;8.190;2023-02-01T02:00:30;11.65;;;7.57;;
66012;SDS011;52783;50.502;8.190;2023-02-01T02:03:00;17.75;;;7.80;;
66012;SDS011;52783;50.502;8.190;2023-02-01T02:05:32;16.40;;;7.50;;
66012;SDS011;52783;50.502;8.190;2023-02-01T02:07:58;17.17;;;7.22;;
66012;SDS011;52783;50.502;8.190;2023-02-01T02:10:26;11.43;;;5.78;;
66012;SDS011;52783;50.502;8.190;2023-02-01T02:13:12;11.60;;;6.65;;
66012;SDS011;52783;50.502;8.190;2023-02-01T02:15:41;13.40;;;6.85;;
66012;SDS011;52783;50.502;8.190;2023-02-01T02:18:16;13.30;;;6.70;;
66012;SDS011;52783;50.502;8.190;2023-02-01T02:28:54;13.13;;;5.55;;
66012;SDS011;52783;50.502;8.190;2023-02-01T02:34:37;18.45;;;6.07;;
66012;SDS011;52783;50.502;8.190;2023-02-01T02:37:19;17.10;;;4.57;;
66012;SDS011;52783;50.502;8.190;2023-02-01T02:40:04;15.48;;;5.22;;
66012;SDS011;52783;50.502;8.190;2023-02-01T02:46:15;10.55;;;4.20;;
66012;SDS011;52783;50.502;8.190;2023-02-01T02:49:39;14.80;;;4.40;;
66012;SDS011;52783;50.502;8.190;2023-02-01T02:52:34;13.68;;;4.65;;
66012;SDS011;52783;50.502;8.190;2023-02-01T02:55:23;12.43;;;3.85;;
66012;SDS011;52783;50.502;8.190;2023-02-01T02:57:51;18.55;;;4.32;;
66012;SDS011;52783;50.502;8.190;2023-02-01T03:00:36;13.40;;;4.10;;
66012;SDS011;52783;50.502;8.190;2023-02-01T03:03:21;21.88;;;4.70;;
66012;SDS011;52783;50.502;8.190;2023-02-01T03:06:09;13.20;;;4.28;;
66012;SDS011;52783;50.502;8.190;2023-02-01T03:08:40;9.80;;;3.78;;
66012;SDS011;52783;50.502;8.190;2023-02-01T03:11:10;14.27;;;4.20;;
66012;SDS011;52783;50.502;8.190;2023-02-01T03:21:27;18.48;;;4.10;;
66012;SDS011;52783;50.502;8.190;2023-02-01T03:24:09;11.82;;;3.67;;
66012;SDS011;52783;50.502;8.190;2023-02-01T03:26:44;13.82;;;3.67;;
66012;SDS011;52783;50.502;8.190;2023-02-01T03:29:22;14.00;;;3.72;;
66012;SDS011;52783;50.502;8.190;2023-02-01T03:31:52;19.30;;;3.80;;
66012;SDS011;52783;50.502;8.190;2023-02-01T03:34:18;13.60;;;3.50;;
66012;SDS011;52783;50.502;8.190;2023-02-01T03:36:56;14.00;;;4.47;;
66012;SDS011;52783;50.502;8.190;2023-02-01T03:42:01;14.23;;;3.35;;
66012;SDS011;52783;50.502;8.190;2023-02-01T03:44:31;8.93;;;3.83;;
66012;SDS011;52783;50.502;8.190;2023-02-01T03:47:04;15.40;;;3.67;;
66012;SDS011;52783;50.502;8.190;2023-02-01T03:49:49;13.45;;;3.97;;
66012;SDS011;52783;50.502;8.190;2023-02-01T03:52:24;15.98;;;3.45;;
66012;SDS011;52783;50.502;8.190;2023-02-01T03:54:53;17.08;;;3.28;;
66012;SDS011;52783;50.502;8.190;2023-02-01T03:57:22;13.95;;;4.22;;
66012;SDS011;52783;50.502;8.190;2023-02-01T04:02:17;13.52;;;3.75;;
66012;SDS011;52783;50.502;8.190;2023-02-01T04:04:43;15.63;;;3.88;;
66012;SDS011;52783;50.502;8.190;2023-02-01T04:07:08;12.75;;;3.72;;
66012;SDS011;52783;50.502;8.190;2023-02-01T04:09:34;10.35;;;3.55;;
66012;SDS011;52783;50.502;8.190;2023-02-01T04:12:00;19.27;;;4.78;;
66012;SDS011;52783;50.502;8.190;2023-02-01T04:14:25;14.77;;;4.00;;
66012;SDS011;52783;50.502;8.190;2023-02-01T04:16:51;16.10;;;3.40;;
66012;SDS011;52783;50.502;8.190;2023-02-01T04:19:17;15.98;;;4.03;;
66012;SDS011;52783;50.502;8.190;2023-02-01T04:21:43;16.77;;;5.03;;
66012;SDS011;52783;50.502;8.190;2023-02-01T04:24:08;19.13;;;4.30;;
66012;SDS011;52783;50.502;8.190;2023-02-01T04:26:34;18.17;;;4.20;;
66012;SDS011;52783;50.502;8.190;2023-02-01T04:28:59;13.35;;;3.95;;
66012;SDS011;52783;50.502;8.190;2023-02-01T04:31:25;12.77;;;3.83;;
66012;SDS011;52783;50.502;8.190;2023-02-01T04:33:52;10.73;;;3.80;;
66012;SDS011;52783;50.502;8.190;2023-02-01T04:36:19;15.55;;;4.13;;
66012;SDS011;52783;50.502;8.190;2023-02-01T04:38:51;19.13;;;4.32;;
66012;SDS011;52783;50.502;8.190;2023-02-01T04:41:16;18.85;;;4.47;;
66012;SDS011;52783;50.502;8.190;2023-02-01T04:43:48;17.88;;;3.50;;
66012;SDS011;52783;50.502;8.190;2023-02-01T04:46:14;25.60;;;4.32;;
66012;SDS011;52783;50.502;8.190;2023-02-01T04:48:40;18.80;;;5.10;;
66012;SDS011;52783;50.502;8.190;2023-02-01T04:51:06;28.20;;;4.57;;
66012;SDS011;52783;50.502;8.190;2023-02-01T04:53:33;15.30;;;4.82;;
66012;SDS011;52783;50.502;8.190;2023-02-01T04:55:58;17.02;;;4.50;;
66012;SDS011;52783;50.502;8.190;2023-02-01T04:58:24;17.45;;;4.00;;
66012;SDS011;52783;50.502;8.190;2023-02-01T05:00:49;16.25;;;4.45;;
66012;SDS011;52783;50.502;8.190;2023-02-01T05:03:16;11.77;;;3.90;;
66012;SDS011;52783;50.502;8.190;2023-02-01T05:05:42;14.68;;;4.15;;
66012;SDS011;52783;50.502;8.190;2023-02-01T05:08:07;14.45;;;4.22;;
66012;SDS011;52783;50.502;8.190;2023-02-01T05:10:33;13.35;;;3.97;;
66012;SDS011;52783;50.502;8.190;2023-02-01T05:12:58;23.58;;;4.07;;
66012;SDS011;52783;50.502;8.190;2023-02-01T05:15:43;10.18;;;3.78;;
66012;SDS011;52783;50.502;8.190;2023-02-01T05:18:08;18.50;;;4.30;;
66012;SDS011;52783;50.502;8.190;2023-02-01T05:20:34;22.67;;;5.13;;
66012;SDS011;52783;50.502;8.190;2023-02-01T05:22:59;26.20;;;4.63;;
66012;SDS011;52783;50.502;8.190;2023-02-01T05:25:25;19.25;;;4.18;;
66012;SDS011;52783;50.502;8.190;2023-02-01T05:27:50;14.10;;;4.13;;
66012;SDS011;52783;50.502;8.190;2023-02-01T05:30:16;14.70;;;3.75;;
66012;SDS011;52783;50.502;8.190;2023-02-01T05:32:42;19.95;;;4.38;;
66012;SDS011;52783;50.502;8.190;2023-02-01T05:35:08;14.57;;;4.22;;
66012;SDS011;52783;50.502;8.190;2023-02-01T05:37:34;17.40;;;4.47;;
66012;SDS011;52783;50.502;8.190;2023-02-01T05:40:00;18.45;;;4.30;;
66012;SDS011;52783;50.502;8.190;2023-02-01T05:42:25;15.15;;;4.50;;
66012;SDS011;52783;50.502;8.190;2023-02-01T05:44:51;15.57;;;3.90;;
66012;SDS011;52783;50.502;8.190;2023-02-01T05:47:17;12.85;;;3.88;;
66012;SDS011;52783;50.502;8.190;2023-02-01T05:49:42;17.90;;;4.10;;
66012;SDS011;52783;50.502;8.190;2023-02-01T05:52:08;11.85;;;3.70;;
66012;SDS011;52783;50.502;8.190;2023-02-01T05:54:33;17.85;;;4.43;;
66012;SDS011;52783;50.502;8.190;2023-02-01T05:56:59;16.38;;;4.15;;
66012;SDS011;52783;50.502;8.190;2023-02-01T05:59:24;17.20;;;3.88;;
66012;SDS011;52783;50.502;8.190;2023-02-01T06:01:50;27.65;;;4.82;;
66012;SDS011;52783;50.502;8.190;2023-02-01T06:04:16;16.13;;;4.40;;
66012;SDS011;52783;50.502;8.190;2023-02-01T06:06:42;22.05;;;5.18;;
66012;SDS011;52783;50.502;8.190;2023-02-01T06:09:07;21.05;;;4.75;;
66012;SDS011;52783;50.502;8.190;2023-02-01T06:11:33;18.98;;;4.22;;
66012;SDS011;52783;50.502;8.190;2023-02-01T06:13:59;14.90;;;4.40;;
66012;SDS011;52783;50.502;8.190;2023-02-01T06:16:24;16.92;;;4.20;;
66012;SDS011;52783;50.502;8.190;2023-02-01T06:18:50;18.73;;;4.38;;
66012;SDS011;52783;50.502;8.190;2023-02-01T06:21:16;13.85;;;4.13;;
66012;SDS011;52783;50.502;8.190;2023-02-01T06:23:49;21.67;;;4.88;;
66012;SDS011;52783;50.502;8.190;2023-02-01T06:26:15;22.23;;;4.30;;
66012;SDS011;52783;50.502;8.190;2023-02-01T06:28:43;24.02;;;4.30;;
66012;SDS011;52783;50.502;8.190;2023-02-01T06:31:08;21.35;;;4.20;;
66012;SDS011;52783;50.502;8.190;2023-02-01T06:33:35;16.08;;;4.00;;
66012;SDS011;52783;50.502;8.190;2023-02-01T06:36:03;12.60;;;3.75;;
66012;SDS011;52783;50.502;8.190;2023-02-01T06:38:30;19.48;;;5.07;;
66012;SDS011;52783;50.502;8.190;2023-02-01T06:40:56;23.38;;;4.03;;
66012;SDS011;52783;50.502;8.190;2023-02-01T06:43:23;18.17;;;4.60;;
66012;SDS011;52783;50.502;8.190;2023-02-01T06:45:50;25.05;;;4.47;;
66012;SDS011;52783;50.502;8.190;2023-02-01T06:48:16;14.02;;;3.25;;
66012;SDS011;52783;50.502;8.190;2023-02-01T06:50:42;12.32;;;3.88;;
66012;SDS011;52783;50.502;8.190;2023-02-01T06:53:08;15.20;;;4.05;;
66012;SDS011;52783;50.502;8.190;2023-02-01T06:55:33;12.75;;;3.50;;
66012;SDS011;52783;50.502;8.190;2023-02-01T06:57:59;15.30;;;2.95;;
66012;SDS011;52783;50.502;8.190;2023-02-01T07:00:26;19.67;;;5.00;;
66012;SDS011;52783;50.502;8.190;2023-02-01T07:02:51;14.18;;;4.20;;
66012;SDS011;52783;50.502;8.190;2023-02-01T07:05:17;20.98;;;4.35;;
66012;SDS011;52783;50.502;8.190;2023-02-01T07:07:42;26.60;;;3.83;;
66012;SDS011;52783;50.502;8.190;2023-02-01T07:10:09;16.45;;;4.25;;
66012;SDS011;52783;50.502;8.190;2023-02-01T07:12:35;19.70;;;4.80;;
66012;SDS011;52783;50.502;8.190;2023-02-01T07:15:01;14.55;;;4.25;;
66012;SDS011;52783;50.502;8.190;2023-02-01T07:17:27;19.23;;;3.88;;
66012;SDS011;52783;50.502;8.190;2023-02-01T07:19:56;11.43;;;3.47;;
66012;SDS011;52783;50.502;8.190;2023-02-01T07:22:23;17.15;;;3.70;;
66012;SDS011;52783;50.502;8.190;2023-02-01T07:24:49;17.70;;;4.65;;
66012;SDS011;52783;50.502;8.190;2023-02-01T07:27:14;13.93;;;4.22;;
66012;SDS011;52783;50.502;8.190;2023-02-01T07:29:40;14.65;;;3.45;;
66012;SDS011;52783;50.502;8.190;2023-02-01T07:32:05;14.25;;;3.97;;
66012;SDS011;52783;50.502;8.190;2023-02-01T07:34:31;16.30;;;3.97;;
66012;SDS011;52783;50.502;8.190;2023-02-01T07:36:56;16.38;;;4.25;;
66012;SDS011;52783;50.502;8.190;2023-02-01T07:39:22;27.15;;;4.18;;
66012;SDS011;52783;50.502;8.190;2023-02-01T07:41:47;17.80;;;3.95;;
66012;SDS011;52783;50.502;8.190;2023-02-01T07:44:13;12.93;;;3.78;;
66012;SDS011;52783;50.502;8.190;2023-02-01T07:46:39;22.10;;;4.35;;
66012;SDS011;52783;50.502;8.190;2023-02-01T07:49:05;17.08;;;4.00;;
66012;SDS011;52783;50.502;8.190;2023-02-01T07:51:31;18.65;;;3.92;;
66012;SDS011;52783;50.502;8.190;2023-02-01T07:53:56;15.75;;;3.63;;
66012;SDS011;52783;50.502;8.190;2023-02-01T07:56:22;10.35;;;3.90;;
66012;SDS011;52783;50.502;8.190;2023-02-01T07:58:51;11.68;;;3.45;;
66012;SDS011;52783;50.502;8.190;2023-02-01T08:01:23;20.50;;;4.32;;
66012;SDS011;52783;50.502;8.190;2023-02-01T08:03:51;13.82;;;3.72;;
66012;SDS011;52783;50.502;8.190;2023-02-01T08:06:21;18.08;;;4.13;;
66012;SDS011;52783;50.502;8.190;2023-02-01T08:08:48;19.80;;;5.57;;
66012;SDS011;52783;50.502;8.190;2023-02-01T08:11:15;21.58;;;4.22;;
66012;SDS011;52783;50.502;8.190;2023-02-01T08:13:41;17.20;;;3.80;;
66012;SDS011;52783;50.502;8.190;2023-02-01T08:16:07;21.63;;;4.15;;
66012;SDS011;52783;50.502;8.190;2023-02-01T08:18:35;22.05;;;5.97;;
66012;SDS011;52783;50.502;8.190;2023-02-01T08:21:05;26.52;;;5.07;;
66012;SDS011;52783;50.502;8.190;2023-02-01T08:23:34;20.08;;;4.18;;
66012;SDS011;52783;50.502;8.190;2023-02-01T08:26:04;18.58;;;4.07;;
66012;SDS011;52783;50.502;8.190;2023-02-01T08:28:34;11.85;;;3.20;;
66012;SDS011;52783;50.502;8.190;2023-02-01T08:31:04;17.42;;;3.28;;
66012;SDS011;52783;50.502;8.190;2023-02-01T08:33:33;16.65;;;3.67;;
66012;SDS011;52783;50.502;8.190;2023-02-01T08:36:01;20.60;;;4.40;;
66012;SDS011;52783;50.502;8.190;2023-02-01T08:38:27;13.30;;;3.50;;
66012;SDS011;52783;50.502;8.190;2023-02-01T08:40:53;14.75;;;3.67;;
66012;SDS011;52783;50.502;8.190;2023-02-01T08:43:18;28.50;;;3.88;;
66012;SDS011;52783;50.502;8.190;2023-02-01T08:45:44;10.80;;;3.50;;
66012;SDS011;52783;50.502;8.190;2023-02-01T08:48:09;16.13;;;3.78;;
66012;SDS011;52783;50.502;8.190;2023-02-01T08:50:35;13.65;;;3.35;;
66012;SDS011;52783;50.502;8.190;2023-02-01T08:53:00;11.15;;;3.67;;
66012;SDS011;52783;50.502;8.190;2023-02-01T08:55:26;12.52;;;3.25;;
66012;SDS011;52783;50.502;8.190;2023-02-01T08:57:52;24.25;;;3.80;;
66012;SDS011;52783;50.502;8.190;2023-02-01T09:00:18;16.42;;;3.85;;
66012;SDS011;52783;50.502;8.190;2023-02-01T09:02:44;16.80;;;3.75;;
66012;SDS011;52783;50.502;8.190;2023-02-01T09:05:10;16.52;;;5.15;;
66012;SDS011;52783;50.502;8.190;2023-02-01T09:07:36;15.55;;;4.13;;
66012;SDS011;52783;50.502;8.190;2023-02-01T09:10:02;17.98;;;4.00;;
66012;SDS011;52783;50.502;8.190;2023-02-01T09:12:29;16.08;;;3.67;;
66012;SDS011;52783;50.502;8.190;2023-02-01T09:14:56;20.02;;;4.15;;
66012;SDS011;52783;50.502;8.190;2023-02-01T09:17:24;22.73;;;4.32;;
66012;SDS011;52783;50.502;8.190;2023-02-01T09:19:53;14.45;;;3.65;;
66012;SDS011;52783;50.502;8.190;2023-02-01T09:22:18;19.15;;;4.32;;
66012;SDS011;52783;50.502;8.190;2023-02-01T09:24:44;17.13;;;4.35;;
66012;SDS011;52783;50.502;8.190;2023-02-01T09:27:09;16.15;;;4.00;;
66012;SDS011;52783;50.502;8.190;2023-02-01T09:29:35;13.20;;;3.97;;
66012;SDS011;52783;50.502;8.190;2023-02-01T09:32:01;16.42;;;3.88;;
66012;SDS011;52783;50.502;8.190;2023-02-01T09:34:26;10.35;;;3.67;;
66012;SDS011;52783;50.502;8.190;2023-02-01T09:36:52;14.40;;;4.55;;
66012;SDS011;52783;50.502;8.190;2023-02-01T09:39:19;16.02;;;4.28;;
66012;SDS011;52783;50.502;8.190;2023-02-01T09:47:00;19.15;;;4.25;;
66012;SDS011;52783;50.502;8.190;2023-02-01T09:49:30;21.00;;;4.10;;
66012;SDS011;52783;50.502;8.190;2023-02-01T09:51:59;12.13;;;3.50;;
66012;SDS011;52783;50.502;8.190;2023-02-01T09:54:31;19.13;;;4.10;;
66012;SDS011;52783;50.502;8.190;2023-02-01T09:57:36;15.52;;;4.40;;
66012;SDS011;52783;50.502;8.190;2023-02-01T10:00:06;23.60;;;3.88;;
66012;SDS011;52783;50.502;8.190;2023-02-01T10:02:40;20.23;;;3.75;;
66012;SDS011;52783;50.502;8.190;2023-02-01T10:05:11;18.02;;;3.97;;
66012;SDS011;52783;50.502;8.190;2023-02-01T10:07:42;12.25;;;4.28;;
66012;SDS011;52783;50.502;8.190;2023-02-01T10:12:55;16.50;;;3.90;;
66012;SDS011;52783;50.502;8.190;2023-02-01T10:24:34;18.48;;;3.95;;
66012;SDS011;52783;50.502;8.190;2023-02-01T10:29:42;23.83;;;3.80;;
66012;SDS011;52783;50.502;8.190;2023-02-01T10:32:12;23.40;;;4.00;;
66012;SDS011;52783;50.502;8.190;2023-02-01T10:34:39;19.17;;;4.05;;
66012;SDS011;52783;50.502;8.190;2023-02-01T10:37:16;15.55;;;4.25;;
66012;SDS011;52783;50.502;8.190;2023-02-01T10:39:53;16.15;;;3.58;;
66012;SDS011;52783;50.502;8.190;2023-02-01T10:42:26;18.20;;;3.60;;
66012;SDS011;52783;50.502;8.190;2023-02-01T10:44:54;11.85;;;3.67;;
66012;SDS011;52783;50.502;8.190;2023-02-01T10:47:22;19.90;;;4.30;;
66012;SDS011;52783;50.502;8.190;2023-02-01T10:52:31;16.65;;;3.45;;
66012;SDS011;52783;50.502;8.190;2023-02-01T10:57:57;17.48;;;4.07;;
66012;SDS011;52783;50.502;8.190;2023-02-01T11:00:25;18.02;;;4.93;;
66012;SDS011;52783;50.502;8.190;2023-02-01T11:02:51;24.13;;;3.95;;
66012;SDS011;52783;50.502;8.190;2023-02-01T11:05:18;17.10;;;4.22;;
66012;SDS011;52783;50.502;8.190;2023-02-01T11:07:53;13.27;;;3.60;;
66012;SDS011;52783;50.502;8.190;2023-02-01T11:10:39;17.67;;;3.67;;
66012;SDS011;52783;50.502;8.190;2023-02-01T11:13:11;18.08;;;4.07;;
66012;SDS011;52783;50.502;8.190;2023-02-01T11:15:42;15.25;;;3.47;;
66012;SDS011;52783;50.502;8.190;2023-02-01T11:18:16;14.25;;;3.78;;
66012;SDS011;52783;50.502;8.190;2023-02-01T11:20:44;23.95;;;4.15;;
66012;SDS011;52783;50.502;8.190;2023-02-01T11:23:24;14.82;;;3.55;;
66012;SDS011;52783;50.502;8.190;2023-02-01T11:25:54;16.50;;;3.67;;
66012;SDS011;52783;50.502;8.190;2023-02-01T11:28:23;14.80;;;3.25;;
66012;SDS011;52783;50.502;8.190;2023-02-01T11:30:53;19.77;;;3.25;;
66012;SDS011;52783;50.502;8.190;2023-02-01T11:33:23;16.98;;;3.80;;
66012;SDS011;52783;50.502;8.190;2023-02-01T11:35:54;19.42;;;3.85;;
66012;SDS011;52783;50.502;8.190;2023-02-01T11:38:26;13.32;;;3.00;;
66012;SDS011;52783;50.502;8.190;2023-02-01T11:41:12;11.25;;;2.90;;
66012;SDS011;52783;50.502;8.190;2023-02-01T11:43:53;17.40;;;3.03;;
66012;SDS011;52783;50.502;8.190;2023-02-01T11:46:20;13.93;;;3.28;;
66012;SDS011;52783;50.502;8.190;2023-02-01T11:48:50;12.38;;;3.70;;
66012;SDS011;52783;50.502;8.190;2023-02-01T11:54:12;18.40;;;3.50;;
66012;SDS011;52783;50.502;8.190;2023-02-01T11:59:31;12.50;;;3.00;;
66012;SDS011;52783;50.502;8.190;2023-02-01T12:05:23;15.85;;;3.50;;
66012;SDS011;52783;50.502;8.190;2023-02-01T12:08:12;16.05;;;3.00;;
66012;SDS011;52783;50.502;8.190;2023-02-01T12:10:53;10.65;;;3.25;;
66012;SDS011;52783;50.502;8.190;2023-02-01T12:13:36;12.07;;;2.72;;
66012;SDS011;52783;50.502;8.190;2023-02-01T12:19:17;16.95;;;3.53;;
66012;SDS011;52783;50.502;8.190;2023-02-01T12:21:53;10.80;;;3.00;;
66012;SDS011;52783;50.502;8.190;2023-02-01T12:24:39;15.80;;;3.35;;
66012;SDS011;52783;50.502;8.190;2023-02-01T12:30:10;15.38;;;3.40;;
66012;SDS011;52783;50.502;8.190;2023-02-01T12:32:48;20.90;;;4.57;;
66012;SDS011;52783;50.502;8.190;2023-02-01T12:43:07;11.32;;;3.60;;
66012;SDS011;52783;50.502;8.190;2023-02-01T12:45:48;19.15;;;3.53;;
66012;SDS011;52783;50.502;8.190;2023-02-01T12:48:22;19.60;;;4.38;;
66012;SDS011;52783;50.502;8.190;2023-02-01T12:50:59;12.57;;;3.67;;
66012;SDS011;52783;50.502;8.190;2023-02-01T12:53:38;15.00;;;3.22;;
66012;SDS011;52783;50.502;8.190;2023-02-01T12:56:23;13.70;;;2.88;;
66012;SDS011;52783;50.502;8.190;2023-02-01T12:58:51;12.38;;;3.28;;
66012;SDS011;52783;50.502;8.190;2023-02-01T13:01:21;11.38;;;2.88;;
66012;SDS011;52783;50.502;8.190;2023-02-01T13:12:28;16.38;;;3.10;;
66012;SDS011;52783;50.502;8.190;2023-02-01T13:15:11;12.10;;;2.92;;
66012;SDS011;52783;50.502;8.190;2023-02-01T13:17:45;11.90;;;3.63;;
66012;SDS011;52783;50.502;8.190;2023-02-01T13:20:22;13.55;;;3.40;;
66012;SDS011;52783;50.502;8.190;2023-02-01T13:22:54;15.95;;;4.07;;
66012;SDS011;52783;50.502;8.190;2023-02-01T13:25:45;8.88;;;2.85;;
66012;SDS011;52783;50.502;8.190;2023-02-01T13:28:16;13.93;;;3.83;;
66012;SDS011;52783;50.502;8.190;2023-02-01T13:33:22;13.63;;;3.25;;
66012;SDS011;52783;50.502;8.190;2023-02-01T13:36:28;11.07;;;3.40;;
66012;SDS011;52783;50.502;8.190;2023-02-01T13:39:23;16.92;;;5.55;;
66012;SDS011;52783;50.502;8.190;2023-02-01T13:42:11;12.52;;;3.00;;
66012;SDS011;52783;50.502;8.190;2023-02-01T13:44:52;21.02;;;3.95;;
66012;SDS011;52783;50.502;8.190;2023-02-01T13:47:30;11.90;;;2.97;;
66012;SDS011;52783;50.502;8.190;2023-02-01T13:50:00;16.00;;;3.55;;
66012;SDS011;52783;50.502;8.190;2023-02-01T13:52:40;16.80;;;3.50;;
66012;SDS011;52783;50.502;8.190;2023-02-01T13:57:38;13.90;;;2.85;;
66012;SDS011;52783;50.502;8.190;2023-02-01T14:00:06;11.38;;;4.18;;
66012;SDS011;52783;50.502;8.190;2023-02-01T14:05:09;16.53;;;2.77;;
66012;SDS011;52783;50.502;8.190;2023-02-01T14:07:36;19.35;;;3.88;;
66012;SDS011;52783;50.502;8.190;2023-02-01T14:26:51;13.35;;;3.03;;
66012;SDS011;52783;50.502;8.190;2023-02-01T14:29:52;9.52;;;2.90;;
66012;SDS011;52783;50.502;8.190;2023-02-01T14:32:23;15.35;;;3.38;;
66012;SDS011;52783;50.502;8.190;2023-02-01T14:35:00;13.55;;;2.90;;
66012;SDS011;52783;50.502;8.190;2023-02-01T14:37:31;13.90;;;3.10;;
66012;SDS011;52783;50.502;8.190;2023-02-01T14:40:00;11.40;;;2.92;;
66012;SDS011;52783;50.502;8.190;2023-02-01T14:47:50;15.88;;;2.97;;
66012;SDS011;52783;50.502;8.190;2023-02-01T14:50:46;12.93;;;3.20;;
66012;SDS011;52783;50.502;8.190;2023-02-01T14:53:15;13.00;;;3.60;;
66012;SDS011;52783;50.502;8.190;2023-02-01T14:55:53;16.83;;;3.20;;
66012;SDS011;52783;50.502;8.190;2023-02-01T15:01:21;11.55;;;3.00;;
66012;SDS011;52783;50.502;8.190;2023-02-01T15:03:57;12.63;;;3.20;;
66012;SDS011;52783;50.502;8.190;2023-02-01T15:14:44;7.78;;;2.85;;
66012;SDS011;52783;50.502;8.190;2023-02-01T15:19:54;12.52;;;2.88;;
66012;SDS011;52783;50.502;8.190;2023-02-01T15:22:21;20.38;;;2.83;;
66012;SDS011;52783;50.502;8.190;2023-02-01T15:24:54;18.73;;;3.58;;
66012;SDS011;52783;50.502;8.190;2023-02-01T15:27:21;12.88;;;2.92;;
66012;SDS011;52783;50.502;8.190;2023-02-01T15:29:47;17.70;;;3.58;;
66012;SDS011;52783;50.502;8.190;2023-02-01T15:32:33;22.67;;;4.18;;
66012;SDS011;52783;50.502;8.190;2023-02-01T15:35:01;11.98;;;2.90;;
66012;SDS011;52783;50.502;8.190;2023-02-01T15:37:27;13.00;;;3.45;;
66012;SDS011;52783;50.502;8.190;2023-02-01T15:42:38;18.67;;;2.80;;
66012;SDS011;52783;50.502;8.190;2023-02-01T15:45:17;14.68;;;3.17;;
66012;SDS011;52783;50.502;8.190;2023-02-01T15:47:46;14.90;;;4.20;;
66012;SDS011;52783;50.502;8.190;2023-02-01T15:50:17;18.73;;;4.45;;
66012;SDS011;52783;50.502;8.190;2023-02-01T15:52:45;9.70;;;3.72;;
66012;SDS011;52783;50.502;8.190;2023-02-01T15:55:36;13.85;;;3.42;;
66012;SDS011;52783;50.502;8.190;2023-02-01T15:58:07;13.48;;;3.45;;
66012;SDS011;52783;50.502;8.190;2023-02-01T16:00:45;13.10;;;3.28;;
66012;SDS011;52783;50.502;8.190;2023-02-01T16:06:04;15.05;;;2.85;;
66012;SDS011;52783;50.502;8.190;2023-02-01T16:08:31;14.30;;;2.95;;
66012;SDS011;52783;50.502;8.190;2023-02-01T16:11:00;13.27;;;2.75;;
66012;SDS011;52783;50.502;8.190;2023-02-01T16:13:39;12.60;;;2.80;;
66012;SDS011;52783;50.502;8.190;2023-02-01T16:16:06;8.10;;;2.80;;
66012;SDS011;52783;50.502;8.190;2023-02-01T16:18:38;12.70;;;2.90;;
66012;SDS011;52783;50.502;8.190;2023-02-01T16:21:05;10.32;;;2.60;;
66012;SDS011;52783;50.502;8.190;2023-02-01T16:23:32;13.35;;;3.50;;
66012;SDS011;52783;50.502;8.190;2023-02-01T16:25:58;12.00;;;3.08;;
66012;SDS011;52783;50.502;8.190;2023-02-01T16:28:23;12.32;;;2.60;;
66012;SDS011;52783;50.502;8.190;2023-02-01T16:30:50;13.63;;;2.90;;
66012;SDS011;52783;50.502;8.190;2023-02-01T16:33:16;17.70;;;3.05;;
66012;SDS011;52783;50.502;8.190;2023-02-01T16:35:46;10.13;;;2.75;;
66012;SDS011;52783;50.502;8.190;2023-02-01T16:38:14;9.95;;;2.83;;
66012;SDS011;52783;50.502;8.190;2023-02-01T16:40:44;19.33;;;3.03;;
66012;SDS011;52783;50.502;8.190;2023-02-01T16:43:11;10.43;;;2.85;;
66012;SDS011;52783;50.502;8.190;2023-02-01T16:45:39;7.05;;;2.45;;
66012;SDS011;52783;50.502;8.190;2023-02-01T16:48:05;8.50;;;2.60;;
66012;SDS011;52783;50.502;8.190;2023-02-01T16:50:31;10.98;;;2.90;;
66012;SDS011;52783;50.502;8.190;2023-02-01T16:52:58;22.80;;;3.42;;
66012;SDS011;52783;50.502;8.190;2023-02-01T16:55:24;15.23;;;3.20;;
66012;SDS011;52783;50.502;8.190;2023-02-01T16:57:50;8.40;;;2.40;;
66012;SDS011;52783;50.502;8.190;2023-02-01T17:00:16;13.00;;;2.90;;
66012;SDS011;52783;50.502;8.190;2023-02-01T17:02:42;11.40;;;3.58;;
66012;SDS011;52783;50.502;8.190;2023-02-01T17:05:08;7.72;;;3.17;;
66012;SDS011;52783;50.502;8.190;2023-02-01T17:07:34;12.25;;;2.80;;
66012;SDS011;52783;50.502;8.190;2023-02-01T17:10:03;7.03;;;2.83;;
66012;SDS011;52783;50.502;8.190;2023-02-01T17:12:31;11.38;;;3.42;;